Time;durP1;ratioP1;P1;durP2;ratioP2;P2;SDS_P1;SDS_P2;PMS_P1;PMS_P2;Temp;Humidity;BMP_temperature;BMP_pressure;BME280_temperature;BME280_humidity;BME280_pressure;Samples;Min_cycle;Max_cycle;Signal;HPM_P1;HPM_P2
2023/02/06 00:02:06;;;;;;;22.02;6.75;;;;;;;;;;5053839;28;20215;-66
2023/02/06 00:04:33;;;;;;;29.00;5.97;;;;;;;;;;5054820;28;20200;-65
2023/02/06 00:07:00;;;;;;;18.63;4.97;;;;;;;;;;5054553;28;20208;-65
2023/02/06 00:09:28;;;;;;;26.90;6.80;;;;;;;;;;5052252;28;20200;-66
2023/02/06 00:11:56;;;;;;;18.73;5.38;;;;;;;;;;5043451;28;20556;-65
2023/02/06 00:14:23;;;;;;;26.75;6.28;;;;;;;;;;5048512;28;20218;-65
2023/02/06 00:16:50;;;;;;;23.83;5.95;;;;;;;;;;5034743;28;20199;-65
2023/02/06 00:19:18;;;;;;;33.85;6.03;;;;;;;;;;5046731;28;20196;-65
2023/02/06 00:21:45;;;;;;;34.40;7.10;;;;;;;;;;5054524;28;20282;-65
2023/02/06 00:24:12;;;;;;;24.58;8.25;;;;;;;;;;5054505;28;20196;-66
2023/02/06 00:26:39;;;;;;;26.35;6.85;;;;;;;;;;5051510;28;20222;-65
2023/02/06 00:29:08;;;;;;;37.83;6.45;;;;;;;;;;5034522;28;20205;-65
2023/02/06 00:31:35;;;;;;;42.38;7.78;;;;;;;;;;5034128;28;20678;-65
2023/02/06 00:34:02;;;;;;;27.42;6.78;;;;;;;;;;5034428;28;20252;-65
2023/02/06 00:36:30;;;;;;;24.60;5.22;;;;;;;;;;5034106;28;20262;-65
2023/02/06 00:38:57;;;;;;;32.22;7.00;;;;;;;;;;5033916;28;20209;-65
2023/02/06 00:41:24;;;;;;;30.52;6.72;;;;;;;;;;5034321;28;20621;-65
2023/02/06 00:43:51;;;;;;;28.45;6.78;;;;;;;;;;5037774;28;20190;-65
2023/02/06 00:46:20;;;;;;;30.35;6.53;;;;;;;;;;5053437;28;20203;-65
2023/02/06 00:48:47;;;;;;;27.45;6.05;;;;;;;;;;5054085;28;20206;-65
2023/02/06 00:51:14;;;;;;;39.97;7.88;;;;;;;;;;5054119;28;20203;-66
2023/02/06 00:53:41;;;;;;;14.52;5.07;;;;;;;;;;5053637;28;20193;-66
2023/02/06 00:56:08;;;;;;;24.17;5.70;;;;;;;;;;5053838;28;20303;-66
2023/02/06 00:58:36;;;;;;;14.95;5.30;;;;;;;;;;5053622;28;20201;-65
2023/02/06 01:01:03;;;;;;;27.65;6.35;;;;;;;;;;5052956;28;20544;-67
2023/02/06 01:03:31;;;;;;;30.15;6.57;;;;;;;;;;5053671;28;20210;-65
2023/02/06 01:05:59;;;;;;;22.42;6.10;;;;;;;;;;5053798;28;20648;-65
2023/02/06 01:08:26;;;;;;;35.25;7.97;;;;;;;;;;5052074;28;20527;-65
2023/02/06 01:10:53;;;;;;;22.02;6.75;;;;;;;;;;5053543;28;20197;-65
2023/02/06 01:13:20;;;;;;;29.83;6.22;;;;;;;;;;5053663;28;20201;-65
2023/02/06 01:15:47;;;;;;;49.47;7.43;;;;;;;;;;5053213;28;20216;-65
2023/02/06 01:18:14;;;;;;;24.58;6.85;;;;;;;;;;5053667;28;20560;-65
2023/02/06 01:20:43;;;;;;;20.42;5.18;;;;;;;;;;5053572;28;20236;-65
2023/02/06 01:23:10;;;;;;;24.83;6.13;;;;;;;;;;5053228;28;20193;-65
2023/02/06 01:25:38;;;;;;;35.03;6.30;;;;;;;;;;5053269;28;20227;-66
2023/02/06 01:28:05;;;;;;;33.45;6.10;;;;;;;;;;5053428;28;20201;-65
2023/02/06 01:30:32;;;;;;;36.42;6.63;;;;;;;;;;5053166;28;20193;-65
2023/02/06 01:32:59;;;;;;;34.92;5.88;;;;;;;;;;5053026;28;20195;-65
2023/02/06 01:35:28;;;;;;;45.45;7.28;;;;;;;;;;5052891;28;20216;-65
2023/02/06 01:37:56;;;;;;;33.78;5.53;;;;;;;;;;5053642;28;20527;-65
2023/02/06 01:40:24;;;;;;;19.60;6.15;;;;;;;;;;5054034;28;20199;-65
2023/02/06 01:42:51;;;;;;;31.95;7.00;;;;;;;;;;5053503;28;20193;-65
2023/02/06 01:45:39;;;;;;;23.60;6.78;;;;;;;;;;5053043;28;20208;-65
2023/02/06 01:48:08;;;;;;;33.35;6.80;;;;;;;;;;5048526;28;20202;-65
2023/02/06 01:50:36;;;;;;;40.63;7.82;;;;;;;;;;5053644;28;20193;-65
2023/02/06 01:53:06;;;;;;;23.55;5.15;;;;;;;;;;5053397;28;20212;-65
2023/02/06 01:55:34;;;;;;;28.38;5.22;;;;;;;;;;5053136;28;20705;-65
2023/02/06 01:58:02;;;;;;;42.55;6.63;;;;;;;;;;5053861;28;20552;-65
2023/02/06 02:00:30;;;;;;;29.23;6.00;;;;;;;;;;5057450;28;20222;-66
2023/02/06 02:02:57;;;;;;;27.77;6.93;;;;;;;;;;5055322;28;20281;-65
2023/02/06 02:05:24;;;;;;;23.38;7.35;;;;;;;;;;5057099;28;20206;-66
2023/02/06 02:07:59;;;;;;;27.92;5.88;;;;;;;;;;5057062;28;20191;-65
2023/02/06 02:10:28;;;;;;;21.20;5.53;;;;;;;;;;5056481;28;20193;-65
2023/02/06 02:12:55;;;;;;;21.50;5.40;;;;;;;;;;5056607;28;20194;-65
2023/02/06 02:15:23;;;;;;;31.10;5.57;;;;;;;;;;5056628;28;20223;-65
2023/02/06 02:17:54;;;;;;;22.70;6.43;;;;;;;;;;5056544;28;20202;-65
2023/02/06 02:20:39;;;;;;;36.72;6.20;;;;;;;;;;5057246;28;20192;-65
2023/02/06 02:23:14;;;;;;;25.25;5.85;;;;;;;;;;5057108;28;20194;-65
2023/02/06 02:25:56;;;;;;;49.00;5.90;;;;;;;;;;5056194;28;20710;-65
2023/02/06 02:28:41;;;;;;;23.83;6.63;;;;;;;;;;5056801;28;20278;-65
2023/02/06 02:31:23;;;;;;;25.75;6.60;;;;;;;;;;5026671;28;20291;-65
2023/02/06 02:34:00;;;;;;;40.75;8.50;;;;;;;;;;5023627;28;20195;-65
2023/02/06 02:36:32;;;;;;;27.70;6.85;;;;;;;;;;5056266;28;20204;-65
2023/02/06 02:39:04;;;;;;;50.70;7.50;;;;;;;;;;5056351;28;20634;-65
2023/02/06 02:41:34;;;;;;;21.98;6.10;;;;;;;;;;5056594;28;20189;-65
2023/02/06 02:44:05;;;;;;;32.55;6.32;;;;;;;;;;5056141;28;20630;-65
2023/02/06 02:46:35;;;;;;;48.03;8.63;;;;;;;;;;5056656;28;20550;-65
2023/02/06 02:49:03;;;;;;;32.70;7.18;;;;;;;;;;5056330;28;20189;-66
2023/02/06 02:51:32;;;;;;;28.85;6.70;;;;;;;;;;5055914;28;20671;-65
2023/02/06 02:53:59;;;;;;;40.65;8.05;;;;;;;;;;5056404;28;20530;-65
2023/02/06 02:56:27;;;;;;;38.63;6.47;;;;;;;;;;5055912;28;20229;-65
2023/02/06 02:58:56;;;;;;;29.92;6.35;;;;;;;;;;5056062;28;20197;-65
2023/02/06 03:01:25;;;;;;;23.75;5.60;;;;;;;;;;5054709;28;20211;-65
2023/02/06 03:03:53;;;;;;;22.33;6.72;;;;;;;;;;5055761;28;20201;-65
2023/02/06 03:06:39;;;;;;;27.85;7.00;;;;;;;;;;5056281;28;20219;-65
2023/02/06 03:09:09;;;;;;;31.67;8.20;;;;;;;;;;5053785;28;20655;-65
2023/02/06 03:11:38;;;;;;;23.02;6.57;;;;;;;;;;5055931;28;20197;-65
2023/02/06 03:14:08;;;;;;;32.65;7.40;;;;;;;;;;5055506;28;20206;-65
2023/02/06 03:16:38;;;;;;;21.98;5.63;;;;;;;;;;5055889;28;20212;-65
2023/02/06 03:19:10;;;;;;;36.97;6.97;;;;;;;;;;5056035;28;20185;-65
2023/02/06 03:21:39;;;;;;;23.50;6.38;;;;;;;;;;5056126;28;20184;-65
2023/02/06 03:24:08;;;;;;;21.92;6.55;;;;;;;;;;5055628;28;20196;-65
2023/02/06 03:26:36;;;;;;;35.17;6.15;;;;;;;;;;5055741;28;20712;-65
2023/02/06 03:29:06;;;;;;;33.97;7.47;;;;;;;;;;5055530;28;20297;-65
2023/02/06 03:31:35;;;;;;;18.13;5.97;;;;;;;;;;5055364;28;20651;-65
2023/02/06 03:34:06;;;;;;;21.17;5.68;;;;;;;;;;5055453;28;20201;-66
2023/02/06 03:36:33;;;;;;;35.42;7.60;;;;;;;;;;5055908;28;20592;-65
2023/02/06 03:39:02;;;;;;;37.05;6.55;;;;;;;;;;5055427;28;20335;-65
2023/02/06 03:41:31;;;;;;;30.30;7.35;;;;;;;;;;5055405;28;20201;-65
2023/02/06 03:43:59;;;;;;;27.60;6.00;;;;;;;;;;5055353;28;20204;-65
2023/02/06 03:46:28;;;;;;;27.27;6.25;;;;;;;;;;5055832;28;20286;-66
2023/02/06 03:48:57;;;;;;;39.13;7.50;;;;;;;;;;5055220;28;20649;-65
2023/02/06 03:51:26;;;;;;;25.75;5.60;;;;;;;;;;5055481;28;20199;-65
2023/02/06 03:53:54;;;;;;;31.40;6.97;;;;;;;;;;5055094;28;20544;-66
2023/02/06 03:56:25;;;;;;;45.70;7.13;;;;;;;;;;5055091;28;20220;-65
2023/02/06 03:58:52;;;;;;;31.13;8.63;;;;;;;;;;5055405;28;20189;-65
2023/02/06 04:01:19;;;;;;;30.42;6.63;;;;;;;;;;5053375;28;20197;-65
2023/02/06 04:03:47;;;;;;;41.03;7.63;;;;;;;;;;5054800;28;20204;-65
2023/02/06 04:06:14;;;;;;;34.85;6.65;;;;;;;;;;5054633;28;20202;-65
2023/02/06 04:08:41;;;;;;;36.25;6.15;;;;;;;;;;5052812;28;20201;-66
2023/02/06 04:11:08;;;;;;;24.92;6.32;;;;;;;;;;5035002;28;20559;-65
2023/02/06 04:13:37;;;;;;;21.17;5.47;;;;;;;;;;5034784;28;20282;-65
2023/02/06 04:16:04;;;;;;;24.80;7.55;;;;;;;;;;5035326;28;20678;-65
2023/02/06 04:18:31;;;;;;;47.53;7.95;;;;;;;;;;5034995;28;20651;-65
2023/02/06 04:21:03;;;;;;;28.90;6.95;;;;;;;;;;5034570;28;20196;-65
2023/02/06 04:23:30;;;;;;;30.25;6.40;;;;;;;;;;5034416;28;20190;-65
2023/02/06 04:25:57;;;;;;;30.42;6.50;;;;;;;;;;5034463;28;20237;-65
2023/02/06 04:28:24;;;;;;;29.38;7.22;;;;;;;;;;5034217;28;20665;-65
2023/02/06 04:30:53;;;;;;;30.33;6.93;;;;;;;;;;5034185;28;20196;-65
2023/02/06 04:33:20;;;;;;;36.55;8.48;;;;;;;;;;5034706;28;20200;-65
2023/02/06 04:35:48;;;;;;;21.55;7.13;;;;;;;;;;5034028;28;20682;-65
2023/02/06 04:38:15;;;;;;;19.30;6.25;;;;;;;;;;5034573;28;20198;-65
2023/02/06 04:40:42;;;;;;;18.35;6.85;;;;;;;;;;5034261;28;20208;-64
2023/02/06 04:43:10;;;;;;;41.10;9.00;;;;;;;;;;5035025;28;20198;-65
2023/02/06 04:45:37;;;;;;;35.47;7.93;;;;;;;;;;5034165;28;20220;-65
2023/02/06 04:48:05;;;;;;;40.08;7.65;;;;;;;;;;5034247;28;20198;-65
2023/02/06 04:50:33;;;;;;;38.63;8.68;;;;;;;;;;5033762;28;20288;-64
2023/02/06 04:53:00;;;;;;;33.97;7.35;;;;;;;;;;5044640;28;20192;-65
2023/02/06 04:55:27;;;;;;;48.42;8.77;;;;;;;;;;5057856;28;20206;-67
2023/02/06 04:57:55;;;;;;;33.25;7.90;;;;;;;;;;5052494;28;20203;-66
2023/02/06 05:00:22;;;;;;;30.45;7.90;;;;;;;;;;5052883;28;20196;-65
2023/02/06 05:02:49;;;;;;;42.88;7.85;;;;;;;;;;5052975;28;20765;-65
2023/02/06 05:05:18;;;;;;;42.45;8.05;;;;;;;;;;5053559;28;20664;-65
2023/02/06 05:07:45;;;;;;;26.60;7.35;;;;;;;;;;5053366;28;20227;-66
2023/02/06 05:10:13;;;;;;;34.83;8.73;;;;;;;;;;5053483;28;20289;-65
2023/02/06 05:12:40;;;;;;;35.15;10.27;;;;;;;;;;5053661;28;20200;-65
2023/02/06 05:15:08;;;;;;;30.42;8.52;;;;;;;;;;5053478;28;20197;-65
2023/02/06 05:17:35;;;;;;;40.85;9.68;;;;;;;;;;5053501;28;20229;-65
2023/02/06 05:20:03;;;;;;;39.28;9.23;;;;;;;;;;5053082;28;20212;-67
2023/02/06 05:22:31;;;;;;;41.45;9.05;;;;;;;;;;5053455;28;20656;-63
2023/02/06 05:24:58;;;;;;;33.05;8.30;;;;;;;;;;5053361;28;20225;-64
2023/02/06 05:27:26;;;;;;;47.47;10.75;;;;;;;;;;5053010;28;20205;-64
2023/02/06 05:29:53;;;;;;;28.30;9.73;;;;;;;;;;5052848;28;20197;-64
2023/02/06 05:32:20;;;;;;;37.53;10.70;;;;;;;;;;5053351;28;20201;-64
2023/02/06 05:34:47;;;;;;;40.58;12.13;;;;;;;;;;5052916;28;20197;-63
2023/02/06 05:37:14;;;;;;;42.67;11.32;;;;;;;;;;5053288;28;20239;-64
2023/02/06 05:39:43;;;;;;;58.95;10.13;;;;;;;;;;5053040;28;20191;-64
2023/02/06 05:42:10;;;;;;;55.10;11.32;;;;;;;;;;5053376;28;20230;-64
2023/02/06 05:44:37;;;;;;;57.65;10.00;;;;;;;;;;5053153;28;20200;-63
2023/02/06 05:47:04;;;;;;;40.72;10.32;;;;;;;;;;5053023;28;20208;-64
2023/02/06 05:49:31;;;;;;;55.92;11.68;;;;;;;;;;5052537;28;20652;-64
2023/02/06 05:51:59;;;;;;;55.38;11.13;;;;;;;;;;5052629;28;20657;-64
2023/02/06 05:54:26;;;;;;;56.72;9.95;;;;;;;;;;5053027;28;20645;-64
2023/02/06 05:56:56;;;;;;;36.33;9.77;;;;;;;;;;5053216;28;20558;-64
2023/02/06 05:59:23;;;;;;;68.10;10.50;;;;;;;;;;5053020;28;20287;-64
2023/02/06 06:01:51;;;;;;;44.00;10.50;;;;;;;;;;5052663;28;20645;-63
2023/02/06 06:04:18;;;;;;;58.97;13.15;;;;;;;;;;5052821;28;20654;-64
2023/02/06 06:06:46;;;;;;;52.63;13.43;;;;;;;;;;5052539;28;20201;-66
2023/02/06 06:09:13;;;;;;;41.95;11.50;;;;;;;;;;5052786;28;20200;-64
2023/02/06 06:11:40;;;;;;;47.10;9.52;;;;;;;;;;5052836;28;20204;-64
2023/02/06 06:14:09;;;;;;;30.98;7.93;;;;;;;;;;5052534;28;20286;-64
2023/02/06 06:16:36;;;;;;;31.65;9.18;;;;;;;;;;5052752;28;20221;-64
2023/02/06 06:19:03;;;;;;;25.95;9.55;;;;;;;;;;5052577;28;20199;-64
2023/02/06 06:21:31;;;;;;;57.20;11.05;;;;;;;;;;5052936;28;20203;-63
2023/02/06 06:23:58;;;;;;;29.67;10.40;;;;;;;;;;5052775;28;20199;-64
2023/02/06 06:26:25;;;;;;;28.67;8.43;;;;;;;;;;5052465;28;20229;-64
2023/02/06 06:28:52;;;;;;;37.10;9.32;;;;;;;;;;5052115;28;20202;-64
2023/02/06 06:31:21;;;;;;;33.90;10.15;;;;;;;;;;5052559;28;20197;-64
2023/02/06 06:33:48;;;;;;;42.40;10.48;;;;;;;;;;5052714;28;20204;-64
2023/02/06 06:36:15;;;;;;;34.00;8.77;;;;;;;;;;5052995;28;20206;-64
2023/02/06 06:38:42;;;;;;;19.23;10.88;;;;;;;;;;5052502;28;20200;-64
2023/02/06 06:41:10;;;;;;;26.92;8.35;;;;;;;;;;5052461;28;20204;-63
2023/02/06 06:43:38;;;;;;;41.65;10.57;;;;;;;;;;5052737;28;20193;-63
2023/02/06 06:46:05;;;;;;;36.35;9.05;;;;;;;;;;5056114;28;20200;-64
2023/02/06 06:48:35;;;;;;;30.52;9.45;;;;;;;;;;5056397;28;20198;-64
2023/02/06 06:51:03;;;;;;;23.85;9.65;;;;;;;;;;5056606;28;20187;-64
2023/02/06 06:53:30;;;;;;;29.77;9.63;;;;;;;;;;5055860;28;20202;-64
2023/02/06 06:56:02;;;;;;;32.65;12.68;;;;;;;;;;5056331;28;20224;-64
2023/02/06 06:58:29;;;;;;;59.78;9.00;;;;;;;;;;5056810;28;20181;-64
2023/02/06 07:00:57;;;;;;;33.30;9.27;;;;;;;;;;5056578;28;20283;-64
2023/02/06 07:03:25;;;;;;;42.90;10.65;;;;;;;;;;5056174;28;20197;-64
2023/02/06 07:05:54;;;;;;;35.10;9.73;;;;;;;;;;5056200;28;20201;-64
2023/02/06 07:08:21;;;;;;;34.10;9.35;;;;;;;;;;5055866;28;20630;-64
2023/02/06 07:10:48;;;;;;;35.20;8.48;;;;;;;;;;5056286;28;20218;-64
2023/02/06 07:13:15;;;;;;;41.15;9.25;;;;;;;;;;5055916;28;20204;-64
2023/02/06 07:15:43;;;;;;;43.63;9.30;;;;;;;;;;5055561;28;20204;-64
2023/02/06 07:18:10;;;;;;;49.75;9.77;;;;;;;;;;5056167;28;20243;-64
2023/02/06 07:20:37;;;;;;;50.00;10.43;;;;;;;;;;5055640;28;20204;-64
2023/02/06 07:23:06;;;;;;;49.50;11.82;;;;;;;;;;5055766;28;20193;-63
2023/02/06 07:25:33;;;;;;;30.15;10.43;;;;;;;;;;5054916;28;20317;-64
2023/02/06 07:28:00;;;;;;;36.08;11.20;;;;;;;;;;5055834;28;20223;-63
2023/02/06 07:30:27;;;;;;;24.73;11.05;;;;;;;;;;5055646;28;20198;-63
2023/02/06 07:32:54;;;;;;;21.17;10.10;;;;;;;;;;5055533;28;20283;-63
2023/02/06 07:35:22;;;;;;;38.00;9.50;;;;;;;;;;5055294;28;20193;-63
2023/02/06 07:37:49;;;;;;;49.25;12.85;;;;;;;;;;5055023;28;20221;-64
2023/02/06 07:40:17;;;;;;;23.92;11.32;;;;;;;;;;5055506;28;20197;-63
2023/02/06 07:42:45;;;;;;;27.77;11.77;;;;;;;;;;5055116;28;20212;-63
2023/02/06 07:45:12;;;;;;;33.55;11.68;;;;;;;;;;5055746;28;20203;-64
2023/02/06 07:47:39;;;;;;;31.33;10.55;;;;;;;;;;5055221;28;20197;-63
2023/02/06 07:50:07;;;;;;;40.28;12.85;;;;;;;;;;5054831;28;20656;-63
2023/02/06 07:52:34;;;;;;;26.85;10.80;;;;;;;;;;5055201;28;20199;-63
2023/02/06 07:55:01;;;;;;;23.40;10.73;;;;;;;;;;5054552;28;20203;-63
2023/02/06 07:57:29;;;;;;;24.92;9.98;;;;;;;;;;5053984;28;20698;-63
2023/02/06 07:59:57;;;;;;;26.13;11.98;;;;;;;;;;5054733;28;20194;-63
2023/02/06 08:02:24;;;;;;;27.63;11.25;;;;;;;;;;5054600;28;20196;-63
2023/02/06 08:04:51;;;;;;;25.55;11.23;;;;;;;;;;5054999;28;20555;-63
2023/02/06 08:07:19;;;;;;;25.95;11.40;;;;;;;;;;5054913;28;20254;-63
2023/02/06 08:09:46;;;;;;;30.27;12.98;;;;;;;;;;5054718;28;20197;-63
2023/02/06 08:12:13;;;;;;;28.70;11.68;;;;;;;;;;5054416;28;20205;-63
2023/02/06 08:14:44;;;;;;;28.35;12.50;;;;;;;;;;5054444;28;20206;-63
2023/02/06 08:17:12;;;;;;;24.00;12.18;;;;;;;;;;5055115;28;20618;-63
2023/02/06 08:19:39;;;;;;;22.27;13.07;;;;;;;;;;5054850;28;20231;-63
2023/02/06 08:22:06;;;;;;;24.33;11.40;;;;;;;;;;5054239;28;20201;-63
2023/02/06 08:24:34;;;;;;;24.40;13.57;;;;;;;;;;5054566;28;20193;-63
2023/02/06 08:27:01;;;;;;;22.40;12.88;;;;;;;;;;5054556;28;20203;-63
2023/02/06 08:29:28;;;;;;;29.95;12.80;;;;;;;;;;5054586;28;20197;-63
2023/02/06 08:31:57;;;;;;;31.75;12.57;;;;;;;;;;5054435;28;20209;-64
2023/02/06 08:34:24;;;;;;;25.48;11.43;;;;;;;;;;5054744;28;20569;-63
2023/02/06 08:36:51;;;;;;;28.85;12.65;;;;;;;;;;5053922;28;20200;-63
2023/02/06 08:39:18;;;;;;;26.52;11.63;;;;;;;;;;5054344;28;20562;-63
2023/02/06 08:41:46;;;;;;;28.55;14.63;;;;;;;;;;5054625;28;20198;-63
2023/02/06 08:44:14;;;;;;;36.55;13.45;;;;;;;;;;5054300;28;20204;-63
2023/02/06 08:46:42;;;;;;;28.33;12.90;;;;;;;;;;5053769;28;20202;-63
2023/02/06 08:49:14;;;;;;;29.67;13.07;;;;;;;;;;5054024;28;20549;-63
2023/02/06 08:51:41;;;;;;;27.10;12.20;;;;;;;;;;5053990;28;20545;-63
2023/02/06 08:54:09;;;;;;;25.77;12.35;;;;;;;;;;5053967;28;20200;-63
2023/02/06 08:56:37;;;;;;;33.67;10.68;;;;;;;;;;5054103;28;20208;-63
2023/02/06 08:59:04;;;;;;;33.03;13.02;;;;;;;;;;5053782;28;20317;-63
2023/02/06 09:01:33;;;;;;;25.15;12.15;;;;;;;;;;5053927;28;20199;-63
2023/02/06 09:04:01;;;;;;;33.63;13.73;;;;;;;;;;5053746;28;20196;-63
2023/02/06 09:06:30;;;;;;;25.27;12.63;;;;;;;;;;5053739;28;20200;-63
2023/02/06 09:08:57;;;;;;;34.10;12.60;;;;;;;;;;5053339;28;20658;-63
2023/02/06 09:11:26;;;;;;;25.63;13.30;;;;;;;;;;5053766;28;20219;-64
2023/02/06 09:13:55;;;;;;;23.42;12.38;;;;;;;;;;5053766;28;20222;-63
2023/02/06 09:16:22;;;;;;;36.90;14.57;;;;;;;;;;5053698;28;20287;-63
2023/02/06 09:18:52;;;;;;;31.30;11.30;;;;;;;;;;5053194;28;20225;-63
2023/02/06 09:21:20;;;;;;;39.25;14.15;;;;;;;;;;5053662;28;20261;-63
2023/02/06 09:23:50;;;;;;;45.90;14.20;;;;;;;;;;5053225;28;20655;-63
2023/02/06 09:26:19;;;;;;;38.53;13.35;;;;;;;;;;5053194;28;20222;-63
2023/02/06 09:28:46;;;;;;;31.50;14.05;;;;;;;;;;5053139;28;20198;-64
2023/02/06 09:31:13;;;;;;;35.63;12.88;;;;;;;;;;5053071;28;20194;-63
2023/02/06 09:33:41;;;;;;;33.72;13.20;;;;;;;;;;5053536;28;20197;-63
2023/02/06 09:36:09;;;;;;;33.03;14.68;;;;;;;;;;5052763;28;20669;-63
2023/02/06 09:38:38;;;;;;;27.73;14.65;;;;;;;;;;5053209;28;20233;-64
2023/02/06 09:41:12;;;;;;;43.05;15.07;;;;;;;;;;5053203;28;20203;-64
2023/02/06 09:43:39;;;;;;;52.05;14.25;;;;;;;;;;5052676;28;20634;-63
2023/02/06 09:46:08;;;;;;;31.88;14.45;;;;;;;;;;5053499;28;20204;-63
2023/02/06 09:48:37;;;;;;;43.25;14.57;;;;;;;;;;5052950;28;20204;-63
2023/02/06 09:51:09;;;;;;;34.33;14.00;;;;;;;;;;5053592;28;20227;-63
2023/02/06 09:53:41;;;;;;;37.17;14.98;;;;;;;;;;5053695;28;20547;-63
2023/02/06 09:56:15;;;;;;;33.60;13.25;;;;;;;;;;5053304;28;20202;-63
2023/02/06 09:58:44;;;;;;;42.97;15.23;;;;;;;;;;5053377;28;20307;-64
2023/02/06 10:01:16;;;;;;;29.45;14.13;;;;;;;;;;5053249;28;20223;-63
2023/02/06 10:03:57;;;;;;;35.67;14.20;;;;;;;;;;5053414;28;20189;-63
2023/02/06 10:06:26;;;;;;;28.52;11.82;;;;;;;;;;5053457;28;20185;-63
2023/02/06 10:08:57;;;;;;;25.67;13.07;;;;;;;;;;5053080;28;20206;-63
2023/02/06 10:11:31;;;;;;;32.85;14.63;;;;;;;;;;5052830;28;20649;-63
2023/02/06 10:14:01;;;;;;;25.50;13.13;;;;;;;;;;5052618;28;20231;-64
2023/02/06 10:16:35;;;;;;;44.88;14.85;;;;;;;;;;5052650;28;20287;-63
2023/02/06 10:19:04;;;;;;;32.08;12.93;;;;;;;;;;5054012;28;20215;-63
2023/02/06 10:21:34;;;;;;;34.45;14.63;;;;;;;;;;5056539;28;20195;-63
2023/02/06 10:24:05;;;;;;;34.60;13.20;;;;;;;;;;5056460;28;20284;-64
2023/02/06 10:26:35;;;;;;;26.60;13.15;;;;;;;;;;5057076;28;20329;-64
2023/02/06 10:29:02;;;;;;;24.98;12.98;;;;;;;;;;5056751;28;20536;-64
2023/02/06 10:31:37;;;;;;;23.42;11.75;;;;;;;;;;5056762;28;20204;-63
2023/02/06 10:34:14;;;;;;;29.63;12.82;;;;;;;;;;5056393;28;20200;-64
2023/02/06 10:36:46;;;;;;;27.02;11.27;;;;;;;;;;5057403;28;20189;-64
2023/02/06 10:39:26;;;;;;;27.30;11.85;;;;;;;;;;5056513;28;20249;-64
2023/02/06 10:41:59;;;;;;;18.08;10.90;;;;;;;;;;5057437;28;20186;-64
2023/02/06 10:44:30;;;;;;;33.92;12.35;;;;;;;;;;5056672;28;20549;-64
2023/02/06 10:46:59;;;;;;;25.73;11.43;;;;;;;;;;5056995;28;20189;-64
2023/02/06 10:49:30;;;;;;;20.15;11.05;;;;;;;;;;5056643;28;20207;-64
2023/02/06 10:51:58;;;;;;;24.40;11.80;;;;;;;;;;5056617;28;20206;-64
2023/02/06 10:54:26;;;;;;;28.48;12.45;;;;;;;;;;5056271;28;20293;-64
2023/02/06 10:56:57;;;;;;;32.38;13.05;;;;;;;;;;5056562;28;20201;-64
2023/02/06 10:59:28;;;;;;;29.15;12.38;;;;;;;;;;5055858;28;20667;-63
2023/02/06 11:01:59;;;;;;;35.90;12.65;;;;;;;;;;5056442;28;20189;-63
2023/02/06 11:04:29;;;;;;;22.92;13.32;;;;;;;;;;5056612;28;20616;-63
2023/02/06 11:06:58;;;;;;;28.15;12.30;;;;;;;;;;5056076;28;20186;-63
2023/02/06 11:09:25;;;;;;;22.30;12.98;;;;;;;;;;5056128;28;20205;-64
2023/02/06 11:11:54;;;;;;;26.13;12.75;;;;;;;;;;5056082;28;20677;-63
2023/02/06 11:14:24;;;;;;;29.98;16.35;;;;;;;;;;5056126;28;20201;-63
2023/02/06 11:16:51;;;;;;;31.17;13.13;;;;;;;;;;5056114;28;20211;-63
2023/02/06 11:19:19;;;;;;;31.40;13.35;;;;;;;;;;5055975;28;20236;-63
2023/02/06 11:21:49;;;;;;;36.67;13.15;;;;;;;;;;5055490;28;20194;-64
2023/02/06 11:24:18;;;;;;;26.98;12.23;;;;;;;;;;5055883;28;20565;-64
2023/02/06 11:26:47;;;;;;;32.55;13.05;;;;;;;;;;5055810;28;20233;-63
2023/02/06 11:29:15;;;;;;;24.83;13.52;;;;;;;;;;5055702;28;20204;-63
2023/02/06 11:31:45;;;;;;;24.40;11.05;;;;;;;;;;5055270;28;20678;-64
2023/02/06 11:34:22;;;;;;;22.33;12.57;;;;;;;;;;5055771;28;20197;-63
2023/02/06 11:36:51;;;;;;;25.73;16.08;;;;;;;;;;5055195;28;20182;-63
2023/02/06 11:39:23;;;;;;;39.78;14.95;;;;;;;;;;5055646;28;20218;-63
2023/02/06 11:41:57;;;;;;;33.70;14.30;;;;;;;;;;5055026;28;20295;-63
2023/02/06 11:44:25;;;;;;;32.30;14.45;;;;;;;;;;5055007;28;20283;-63
2023/02/06 11:46:55;;;;;;;35.75;13.60;;;;;;;;;;5055029;28;20197;-63
2023/02/06 11:49:25;;;;;;;32.03;15.45;;;;;;;;;;5055277;28;20189;-63
2023/02/06 11:51:53;;;;;;;30.48;14.05;;;;;;;;;;5054872;28;20202;-63
2023/02/06 11:54:21;;;;;;;30.80;14.77;;;;;;;;;;5054817;28;20230;-64
2023/02/06 11:56:56;;;;;;;31.55;14.88;;;;;;;;;;5054882;28;20202;-63
2023/02/06 11:59:25;;;;;;;30.92;15.77;;;;;;;;;;5055251;28;20309;-63
2023/02/06 12:01:56;;;;;;;27.27;13.57;;;;;;;;;;5055252;28;20194;-63
2023/02/06 12:04:25;;;;;;;28.42;13.18;;;;;;;;;;5055194;28;20541;-63
2023/02/06 12:06:59;;;;;;;28.17;13.70;;;;;;;;;;5055178;28;20288;-63
2023/02/06 12:09:27;;;;;;;38.95;14.35;;;;;;;;;;5054540;28;20622;-63
2023/02/06 12:11:57;;;;;;;35.80;16.25;;;;;;;;;;5054660;28;20201;-63
2023/02/06 12:14:28;;;;;;;53.72;18.05;;;;;;;;;;5054674;28;20182;-63
2023/02/06 12:16:57;;;;;;;24.25;13.90;;;;;;;;;;5055105;28;20186;-63
2023/02/06 12:19:30;;;;;;;42.10;14.57;;;;;;;;;;5054873;28;20226;-64
2023/02/06 12:22:02;;;;;;;36.15;14.07;;;;;;;;;;5055201;28;20205;-63
2023/02/06 12:24:33;;;;;;;40.22;15.43;;;;;;;;;;5054260;28;20187;-64
2023/02/06 12:27:03;;;;;;;40.50;13.40;;;;;;;;;;5055066;28;20183;-64
2023/02/06 12:29:33;;;;;;;28.92;10.98;;;;;;;;;;5054116;28;20651;-65
2023/02/06 12:32:07;;;;;;;30.77;12.68;;;;;;;;;;5055078;28;20188;-65
2023/02/06 12:34:44;;;;;;;26.60;10.45;;;;;;;;;;5054107;28;20228;-65
2023/02/06 12:37:13;;;;;;;25.00;12.05;;;;;;;;;;5054113;28;20196;-64
2023/02/06 12:39:42;;;;;;;25.02;11.88;;;;;;;;;;5054063;28;20221;-63
2023/02/06 12:42:16;;;;;;;25.33;12.07;;;;;;;;;;5053751;28;20658;-63
2023/02/06 12:44:46;;;;;;;23.83;9.85;;;;;;;;;;5054254;28;20186;-64
2023/02/06 12:47:21;;;;;;;34.22;11.30;;;;;;;;;;5055063;28;20591;-64
2023/02/06 12:49:52;;;;;;;19.67;10.77;;;;;;;;;;5054138;28;20546;-63
2023/02/06 12:52:22;;;;;;;17.02;11.00;;;;;;;;;;5053782;28;20190;-63
2023/02/06 12:54:51;;;;;;;21.50;10.23;;;;;;;;;;5054223;28;20208;-66
2023/02/06 12:57:20;;;;;;;24.42;10.77;;;;;;;;;;5054065;28;20202;-64
2023/02/06 13:00:11;;;;;;;18.40;10.32;;;;;;;;;;5053932;28;20224;-64
2023/02/06 13:03:00;;;;;;;17.92;10.23;;;;;;;;;;5053955;28;20225;-64
2023/02/06 13:05:28;;;;;;;17.70;11.05;;;;;;;;;;5053919;28;20195;-65
2023/02/06 13:07:57;;;;;;;23.33;11.38;;;;;;;;;;5053814;28;20197;-64
2023/02/06 13:10:25;;;;;;;26.05;13.63;;;;;;;;;;5053437;28;20678;-64
2023/02/06 13:12:57;;;;;;;23.27;10.20;;;;;;;;;;5053452;28;20674;-62
2023/02/06 13:15:25;;;;;;;22.25;11.18;;;;;;;;;;5053869;28;20198;-64
2023/02/06 13:17:54;;;;;;;28.70;11.85;;;;;;;;;;5053424;28;20667;-64
2023/02/06 13:20:23;;;;;;;21.10;11.90;;;;;;;;;;5053498;28;20701;-65
2023/02/06 13:22:51;;;;;;;20.30;10.82;;;;;;;;;;5053310;28;20212;-62
2023/02/06 13:25:52;;;;;;;26.60;11.68;;;;;;;;;;5053204;28;20230;-65
2023/02/06 13:28:37;;;;;;;28.15;11.13;;;;;;;;;;5054022;28;20212;-64
2023/02/06 13:31:06;;;;;;;32.22;12.20;;;;;;;;;;5053934;28;20192;-65
2023/02/06 13:33:42;;;;;;;36.53;13.02;;;;;;;;;;5053468;28;20650;-64
2023/02/06 13:36:16;;;;;;;22.45;12.40;;;;;;;;;;5053503;28;20185;-64
2023/02/06 13:38:43;;;;;;;30.92;13.20;;;;;;;;;;5053171;28;20205;-64
2023/02/06 13:41:28;;;;;;;23.50;11.93;;;;;;;;;;5053273;28;20305;-64
2023/02/06 13:43:57;;;;;;;28.20;11.32;;;;;;;;;;5053350;28;20208;-64
2023/02/06 13:46:26;;;;;;;25.48;12.35;;;;;;;;;;5053209;28;20202;-64
2023/02/06 13:49:04;;;;;;;21.00;11.88;;;;;;;;;;5053514;28;20570;-64
2023/02/06 13:51:38;;;;;;;21.35;11.38;;;;;;;;;;5052947;28;20181;-64
2023/02/06 13:54:24;;;;;;;22.80;11.45;;;;;;;;;;5054315;28;20186;-68
2023/02/06 13:56:58;;;;;;;19.95;9.55;;;;;;;;;;5056843;28;20205;-65
2023/02/06 13:59:29;;;;;;;20.02;9.63;;;;;;;;;;5058078;28;20297;-65
2023/02/06 14:01:56;;;;;;;25.10;11.35;;;;;;;;;;5061089;28;20188;-66
2023/02/06 14:04:26;;;;;;;19.08;11.02;;;;;;;;;;5076920;28;20204;-68
2023/02/06 14:07:11;;;;;;;24.13;11.50;;;;;;;;;;5055602;28;20203;-66
2023/02/06 14:09:52;;;;;;;18.35;9.90;;;;;;;;;;5035924;28;20204;-66
2023/02/06 14:12:33;;;;;;;24.42;10.65;;;;;;;;;;5036008;28;20207;-66
2023/02/06 14:15:06;;;;;;;25.75;9.88;;;;;;;;;;5036665;28;20237;-64
2023/02/06 14:17:43;;;;;;;18.42;9.93;;;;;;;;;;5042668;28;20662;-64
2023/02/06 14:20:19;;;;;;;26.00;11.27;;;;;;;;;;5056194;28;20656;-64
2023/02/06 14:22:50;;;;;;;27.05;10.70;;;;;;;;;;5055472;28;20273;-65
2023/02/06 14:25:25;;;;;;;31.15;10.75;;;;;;;;;;5055872;28;20317;-64
2023/02/06 14:27:57;;;;;;;25.52;10.30;;;;;;;;;;5056242;28;20557;-64
2023/02/06 14:30:30;;;;;;;24.52;9.63;;;;;;;;;;5056317;28;20653;-64
2023/02/06 14:33:04;;;;;;;29.15;10.73;;;;;;;;;;5056291;28;20187;-65
2023/02/06 14:35:48;;;;;;;20.58;10.02;;;;;;;;;;5056638;28;20274;-64
2023/02/06 14:38:23;;;;;;;24.65;10.10;;;;;;;;;;5056611;28;20193;-64